createdAt,value
2018-07-19T00:01:47.287Z,99.30
2018-07-19T00:04:16.132Z,99.90
2018-07-19T00:06:44.630Z,99.90
2018-07-19T00:09:13.332Z,99.90
2018-07-19T00:11:41.827Z,99.90
2018-07-19T00:14:10.348Z,99.90
2018-07-19T00:16:38.911Z,99.90
2018-07-19T00:19:07.617Z,99.90
2018-07-19T00:21:36.114Z,99.90
2018-07-19T00:24:04.790Z,99.90
2018-07-19T00:26:33.304Z,99.90
2018-07-19T00:29:01.803Z,99.90
2018-07-19T00:31:30.496Z,99.90
2018-07-19T00:34:00.068Z,99.90
2018-07-19T00:36:28.646Z,99.90
2018-07-19T00:38:57.110Z,99.90
2018-07-19T00:41:25.655Z,99.90
2018-07-19T00:43:54.352Z,99.90
2018-07-19T00:46:22.868Z,99.90
2018-07-19T00:48:51.372Z,99.90
2018-07-19T00:51:20.038Z,99.90
2018-07-19T00:53:48.536Z,99.90
2018-07-19T00:56:17.026Z,99.90
2018-07-19T00:58:45.700Z,99.90
2018-07-19T01:01:14.279Z,99.90
2018-07-19T01:03:42.775Z,99.90
2018-07-19T01:06:11.290Z,99.90
2018-07-19T01:08:39.805Z,99.90
2018-07-19T01:11:08.491Z,99.90
2018-07-19T01:13:37.140Z,99.90
2018-07-19T01:16:05.910Z,99.90
2018-07-19T01:18:34.568Z,99.90
2018-07-19T01:21:03.250Z,99.90
2018-07-19T01:23:34.095Z,99.90
2018-07-19T01:26:02.675Z,99.90
2018-07-19T01:28:31.339Z,99.90
2018-07-19T01:30:59.854Z,99.90
2018-07-19T01:33:28.372Z,99.90
2018-07-19T01:35:56.862Z,99.90
2018-07-19T01:38:25.998Z,99.90
2018-07-19T01:40:54.480Z,99.90
2018-07-19T01:43:23.162Z,99.90
2018-07-19T01:45:51.646Z,99.90
2018-07-19T01:48:20.149Z,99.90
2018-07-19T01:50:50.177Z,99.90
2018-07-19T01:53:20.186Z,99.90
2018-07-19T01:55:49.455Z,99.90
2018-07-19T01:58:17.970Z,99.90
2018-07-19T02:00:46.664Z,99.90
2018-07-19T02:03:15.158Z,99.90
2018-07-19T02:05:43.672Z,99.90
2018-07-19T02:08:12.374Z,99.90
2018-07-19T02:10:40.866Z,99.90
2018-07-19T02:13:09.372Z,99.90
2018-07-19T02:15:37.906Z,99.90
2018-07-19T02:18:06.584Z,99.90
2018-07-19T02:20:35.083Z,99.90
2018-07-19T02:23:03.579Z,99.90
2018-07-19T02:25:32.269Z,99.90
2018-07-19T02:28:00.967Z,99.90
2018-07-19T02:30:29.452Z,99.90
2018-07-19T02:32:58.207Z,99.90
2018-07-19T02:35:26.891Z,99.90
2018-07-19T02:37:55.460Z,99.90
2018-07-19T02:40:24.119Z,99.90
2018-07-19T02:42:52.650Z,99.90
2018-07-19T02:45:21.143Z,99.90
2018-07-19T02:47:49.615Z,99.90
2018-07-19T02:50:18.307Z,99.90
2018-07-19T02:52:47.198Z,99.90
2018-07-19T02:55:15.711Z,99.90
2018-07-19T02:57:44.735Z,99.90
2018-07-19T03:00:13.412Z,99.90
2018-07-19T03:02:42.101Z,99.90
2018-07-19T03:05:10.803Z,99.90
2018-07-19T03:07:39.505Z,99.90
2018-07-19T03:10:08.199Z,99.90
2018-07-19T03:12:36.739Z,99.90
2018-07-19T03:15:05.259Z,99.90
2018-07-19T03:17:34.203Z,99.90
2018-07-19T03:20:02.747Z,99.90
2018-07-19T03:22:31.427Z,99.90
2018-07-19T03:25:00.129Z,99.90
2018-07-19T03:27:28.610Z,99.90
2018-07-19T03:29:57.091Z,99.90
2018-07-19T03:32:25.789Z,99.90
2018-07-19T03:34:54.503Z,99.90
2018-07-19T03:37:22.995Z,99.90
2018-07-19T03:39:51.755Z,99.90
2018-07-19T03:42:20.448Z,99.90
2018-07-19T03:44:48.954Z,99.90
2018-07-19T03:47:17.435Z,99.90
2018-07-19T03:49:46.103Z,99.90
2018-07-19T03:52:14.706Z,99.90
2018-07-19T03:54:43.419Z,99.90
2018-07-19T03:57:12.213Z,99.90
2018-07-19T03:59:40.805Z,99.90
2018-07-19T04:02:09.363Z,99.90
2018-07-19T04:04:37.856Z,99.90
2018-07-19T04:07:06.672Z,99.90
2018-07-19T04:09:35.190Z,99.90
2018-07-19T04:12:03.727Z,99.90
2018-07-19T04:14:32.380Z,99.90
2018-07-19T04:17:01.304Z,99.90
2018-07-19T04:19:29.989Z,99.90
2018-07-19T04:21:58.675Z,99.90
2018-07-19T04:24:27.326Z,99.90
2018-07-19T04:26:56.020Z,99.90
2018-07-19T04:29:24.510Z,99.90
2018-07-19T04:31:53.204Z,99.90
2018-07-19T04:34:21.870Z,99.90
2018-07-19T04:36:50.963Z,99.90
2018-07-19T04:39:19.466Z,99.90
2018-07-19T04:41:47.990Z,99.90
2018-07-19T04:44:16.508Z,99.90
2018-07-19T04:46:45.266Z,99.90
2018-07-19T04:49:13.787Z,99.90
2018-07-19T04:51:42.466Z,99.90
2018-07-19T04:54:10.973Z,99.90
2018-07-19T04:56:39.660Z,99.90
2018-07-19T04:59:08.950Z,99.90
2018-07-19T05:01:37.485Z,99.90
2018-07-19T05:04:06.174Z,99.90
2018-07-19T05:06:34.890Z,99.90
2018-07-19T05:09:03.835Z,99.90
2018-07-19T05:11:32.331Z,99.90
2018-07-19T05:14:00.868Z,99.90
2018-07-19T05:16:29.567Z,99.90
2018-07-19T05:18:58.103Z,99.90
2018-07-19T05:21:26.778Z,99.90
2018-07-19T05:23:55.347Z,99.90
2018-07-19T05:26:23.831Z,99.90
2018-07-19T05:28:52.547Z,99.90
2018-07-19T05:31:21.162Z,99.90
2018-07-19T05:33:49.704Z,99.90
2018-07-19T05:36:18.386Z,99.90
2018-07-19T05:38:48.447Z,99.90
2018-07-19T05:41:17.003Z,99.90
2018-07-19T05:43:45.517Z,99.90
2018-07-19T05:46:14.068Z,99.90
2018-07-19T05:48:42.559Z,99.90
2018-07-19T05:51:11.253Z,99.90
2018-07-19T05:53:39.965Z,99.90
2018-07-19T05:56:08.847Z,99.90
2018-07-19T05:58:37.346Z,99.90
2018-07-19T06:01:06.191Z,99.90
2018-07-19T06:03:34.744Z,99.90
2018-07-19T06:06:03.675Z,99.90
2018-07-19T06:08:32.391Z,99.90
2018-07-19T06:11:01.104Z,99.70
2018-07-19T06:13:30.294Z,98.80
2018-07-19T06:15:59.064Z,98.80
2018-07-19T06:18:27.754Z,99.10
2018-07-19T06:20:56.254Z,98.60
2018-07-19T06:23:24.983Z,96.60
2018-07-19T06:25:54.280Z,94.70
2018-07-19T06:28:23.079Z,95.10
2018-07-19T06:30:51.766Z,94.90
2018-07-19T06:33:20.551Z,95.20
2018-07-19T06:35:49.418Z,93.00
2018-07-19T06:38:18.139Z,89.60
2018-07-19T06:40:46.995Z,82.30
2018-07-19T06:43:15.740Z,70.70
2018-07-19T06:45:45.296Z,70.70
2018-07-19T06:48:13.811Z,71.60
2018-07-19T06:50:42.527Z,69.20
2018-07-19T06:53:11.292Z,71.10
2018-07-19T06:55:39.970Z,73.50
2018-07-19T06:58:08.696Z,74.40
2018-07-19T07:00:37.416Z,66.60
2018-07-19T07:03:06.352Z,56.70
2018-07-19T07:05:35.044Z,51.40
2018-07-19T07:08:03.858Z,47.40
2018-07-19T07:10:33.443Z,44.60
2018-07-19T07:13:02.708Z,41.20
2018-07-19T07:15:31.940Z,42.80
2018-07-19T07:18:01.023Z,42.10
2018-07-19T07:20:30.105Z,42.00
2018-07-19T07:22:59.335Z,44.50
2018-07-19T07:25:29.044Z,46.40
2018-07-19T07:27:58.482Z,47.00
2018-07-19T07:30:27.755Z,47.20
2018-07-19T07:32:57.007Z,47.30
2018-07-19T07:35:25.907Z,48.80
2018-07-19T07:37:54.650Z,50.90
2018-07-19T07:40:23.191Z,50.90
2018-07-19T07:42:51.837Z,51.50
2018-07-19T07:45:20.630Z,52.40
2018-07-19T07:47:49.311Z,52.80
2018-07-19T07:50:17.860Z,53.40
2018-07-19T07:52:46.367Z,52.80
2018-07-19T07:55:15.101Z,55.80
2018-07-19T07:57:43.595Z,52.00
2018-07-19T08:00:12.166Z,51.80
2018-07-19T08:02:40.832Z,50.10
2018-07-19T08:05:09.907Z,49.50
2018-07-19T08:07:38.798Z,48.60
2018-07-19T08:10:07.365Z,48.20
2018-07-19T08:12:36.071Z,49.10
2018-07-19T08:15:05.228Z,48.90
2018-07-19T08:17:33.811Z,49.80
2018-07-19T08:20:02.498Z,49.00
2018-07-19T08:22:31.207Z,48.80
2018-07-19T08:24:59.751Z,50.50
2018-07-19T08:29:56.721Z,49.00
2018-07-19T08:32:25.631Z,49.30
2018-07-19T08:34:54.341Z,48.10
2018-07-19T08:37:22.946Z,46.70
2018-07-19T08:39:51.502Z,47.10
2018-07-19T08:42:20.232Z,46.50
2018-07-19T08:44:48.976Z,46.30
2018-07-19T08:47:17.563Z,46.00
2018-07-19T08:49:47.495Z,46.10
2018-07-19T08:52:17.500Z,45.10
2018-07-19T08:54:46.038Z,46.50
2018-07-19T08:57:15.251Z,46.10
2018-07-19T08:59:47.148Z,46.20
2018-07-19T09:02:16.084Z,46.40
2018-07-19T09:04:44.766Z,46.70
2018-07-19T09:07:13.311Z,47.70
2018-07-19T09:09:42.058Z,47.20
2018-07-19T09:12:10.599Z,45.20
2018-07-19T09:14:39.127Z,44.50
2018-07-19T09:17:07.692Z,44.60
2018-07-19T09:19:36.453Z,45.00
2018-07-19T09:22:05.116Z,45.30
2018-07-19T09:24:33.626Z,44.50
2018-07-19T09:27:02.210Z,47.50
2018-07-19T09:29:30.931Z,47.00
2018-07-19T09:31:59.490Z,49.60
2018-07-19T09:34:28.003Z,48.20
2018-07-19T09:36:56.699Z,48.70
2018-07-19T09:39:25.470Z,47.50
2018-07-19T09:41:54.163Z,47.50
2018-07-19T09:44:22.824Z,47.60
2018-07-19T09:46:51.337Z,47.20
2018-07-19T09:49:20.048Z,48.20
2018-07-19T09:51:48.540Z,47.70
2018-07-19T09:54:28.135Z,48.50
2018-07-19T09:56:56.648Z,48.10
2018-07-19T09:59:25.649Z,47.90
2018-07-19T10:01:54.398Z,48.20
2018-07-19T10:04:23.395Z,46.90
2018-07-19T10:06:52.618Z,47.50
2018-07-19T10:09:21.168Z,47.30
2018-07-19T10:11:50.190Z,47.60
2018-07-19T10:14:18.703Z,47.80
2018-07-19T10:16:47.247Z,47.60
2018-07-19T10:19:15.743Z,45.70
2018-07-19T10:21:44.326Z,46.30
2018-07-19T10:24:13.053Z,46.90
2018-07-19T10:26:41.731Z,46.10
2018-07-19T10:29:10.420Z,46.30
2018-07-19T10:31:38.998Z,46.70
2018-07-19T10:34:09.816Z,46.90
2018-07-19T10:36:38.814Z,48.10
2018-07-19T10:39:08.668Z,46.90
2018-07-19T10:41:37.291Z,46.70
2018-07-19T10:44:06.066Z,47.70
2018-07-19T10:46:34.741Z,47.50
2018-07-19T10:49:03.439Z,47.90
2018-07-19T10:51:31.961Z,44.60
2018-07-19T10:54:00.464Z,45.50
2018-07-19T10:56:28.991Z,46.00
2018-07-19T10:58:57.536Z,47.10
2018-07-19T11:01:26.193Z,47.60
2018-07-19T11:03:55.249Z,46.80
2018-07-19T11:06:23.731Z,47.80
2018-07-19T11:08:52.293Z,45.90
2018-07-19T11:11:21.271Z,45.40
2018-07-19T11:13:49.800Z,44.90
2018-07-19T11:16:19.423Z,45.70
2018-07-19T11:18:50.723Z,45.70
2018-07-19T11:21:19.194Z,45.00
2018-07-19T11:23:47.713Z,43.40
2018-07-19T11:26:16.671Z,45.70
2018-07-19T11:28:45.156Z,44.20
2018-07-19T11:31:13.658Z,45.50
2018-07-19T11:33:42.194Z,45.10
2018-07-19T11:36:11.028Z,46.10
2018-07-19T11:38:39.984Z,46.80
2018-07-19T11:41:08.474Z,44.70
2018-07-19T11:43:36.992Z,44.80
2018-07-19T11:46:05.587Z,43.20
2018-07-19T11:48:34.128Z,43.10
2018-07-19T11:51:02.649Z,44.20
2018-07-19T11:53:31.213Z,45.60
2018-07-19T11:55:59.727Z,45.40
2018-07-19T11:58:28.218Z,44.60
2018-07-19T12:01:00.051Z,45.30
2018-07-19T12:03:28.607Z,45.90
2018-07-19T12:05:57.187Z,45.20
2018-07-19T12:08:25.902Z,45.10
2018-07-19T12:10:54.431Z,45.50
2018-07-19T12:13:22.887Z,45.90
2018-07-19T12:15:51.408Z,47.30
2018-07-19T12:18:19.961Z,45.30
2018-07-19T12:20:48.483Z,45.90
2018-07-19T12:23:16.973Z,44.50
2018-07-19T12:25:45.506Z,43.90
2018-07-19T12:28:14.041Z,44.60
2018-07-19T12:30:42.550Z,43.00
2018-07-19T12:33:11.054Z,44.50
2018-07-19T12:35:39.558Z,44.20
2018-07-19T12:38:08.079Z,44.00
2018-07-19T12:40:37.087Z,45.30
2018-07-19T12:43:05.762Z,44.20
2018-07-19T12:45:34.280Z,44.80
2018-07-19T12:48:02.896Z,45.10
2018-07-19T12:50:31.407Z,45.10
2018-07-19T12:52:59.918Z,45.00
2018-07-19T12:55:28.435Z,45.70
2018-07-19T12:57:56.987Z,45.20
2018-07-19T13:00:25.552Z,45.40
2018-07-19T13:02:54.052Z,45.90
2018-07-19T13:05:23.025Z,44.60
2018-07-19T13:07:51.697Z,43.90
2018-07-19T13:10:20.253Z,45.40
2018-07-19T13:12:48.761Z,45.20
2018-07-19T13:15:17.321Z,43.80
2018-07-19T13:17:45.986Z,44.20
2018-07-19T13:20:15.311Z,43.50
2018-07-19T13:22:44.634Z,43.60
2018-07-19T13:25:14.973Z,45.40
2018-07-19T13:27:44.570Z,44.00
2018-07-19T13:30:13.716Z,44.50
2018-07-19T13:32:42.684Z,44.50
2018-07-19T13:35:11.623Z,44.60
2018-07-19T13:37:40.558Z,44.40
2018-07-19T13:40:10.243Z,45.10
2018-07-19T13:42:39.699Z,45.00
2018-07-19T13:45:08.724Z,45.40
2018-07-19T13:47:43.695Z,45.10
2018-07-19T13:50:12.231Z,43.60
2018-07-19T13:52:51.886Z,44.70
2018-07-19T13:55:20.655Z,42.70
2018-07-19T13:57:49.177Z,44.90
2018-07-19T14:00:21.111Z,44.30
2018-07-19T14:02:50.263Z,43.70
2018-07-19T14:05:18.965Z,45.10
2018-07-19T14:07:47.492Z,45.60
2018-07-19T14:10:16.000Z,45.10
2018-07-19T14:12:44.892Z,45.50
2018-07-19T14:15:13.440Z,44.10
2018-07-19T14:17:41.971Z,44.30
2018-07-19T14:20:10.822Z,44.10
2018-07-19T14:22:39.341Z,45.00
2018-07-19T14:25:07.896Z,45.50
2018-07-19T14:27:36.426Z,45.20
2018-07-19T14:30:05.592Z,44.20
2018-07-19T14:32:34.162Z,45.80
2018-07-19T14:35:02.658Z,43.40
2018-07-19T14:37:31.230Z,43.30
2018-07-19T14:39:59.757Z,45.40
2018-07-19T14:42:28.274Z,43.30
2018-07-19T14:44:56.799Z,44.50
2018-07-19T14:47:25.345Z,43.80
2018-07-19T14:49:53.854Z,44.70
2018-07-19T14:52:22.427Z,45.70
2018-07-19T14:54:51.027Z,47.30
2018-07-19T14:59:47.756Z,45.10
2018-07-19T15:02:16.290Z,46.10
2018-07-19T15:04:44.807Z,45.70
2018-07-19T15:07:13.315Z,44.40
2018-07-19T15:09:41.835Z,43.60
2018-07-19T15:12:10.328Z,44.10
2018-07-19T15:14:38.925Z,44.90
2018-07-19T15:17:07.504Z,46.20
2018-07-19T15:19:36.323Z,46.00
2018-07-19T15:22:05.085Z,46.20
2018-07-19T15:24:34.105Z,46.00
2018-07-19T15:27:02.831Z,45.40
2018-07-19T15:29:31.503Z,45.10
2018-07-19T15:32:00.110Z,45.00
2018-07-19T15:34:28.708Z,45.80
2018-07-19T15:36:57.544Z,45.30
2018-07-19T15:39:26.155Z,45.70
2018-07-19T15:41:54.700Z,45.10
2018-07-19T15:44:23.272Z,44.30
2018-07-19T15:46:51.819Z,45.60
2018-07-19T15:49:20.817Z,45.20
2018-07-19T15:51:58.924Z,44.60
2018-07-19T15:56:55.860Z,44.10
2018-07-19T15:59:24.350Z,44.40
2018-07-19T16:01:52.855Z,44.80
2018-07-19T16:04:21.400Z,45.10
2018-07-19T16:06:50.255Z,45.10
2018-07-19T16:09:18.977Z,47.20
2018-07-19T16:11:47.523Z,45.90
2018-07-19T16:14:16.172Z,44.60
2018-07-19T16:16:44.747Z,44.30
2018-07-19T16:19:13.242Z,44.40
2018-07-19T16:21:49.779Z,45.90
2018-07-19T16:24:18.588Z,45.70
2018-07-19T16:26:47.142Z,45.70
2018-07-19T16:29:15.679Z,46.10
2018-07-19T16:31:44.244Z,45.50
2018-07-19T16:34:12.728Z,45.10
2018-07-19T16:36:41.291Z,45.10
2018-07-19T16:39:10.559Z,45.40
2018-07-19T16:41:39.344Z,45.00
2018-07-19T16:44:08.088Z,45.30
2018-07-19T16:46:36.918Z,44.70
2018-07-19T16:49:05.678Z,43.40
2018-07-19T16:51:34.270Z,45.10
2018-07-19T16:54:02.792Z,46.00
2018-07-19T16:56:31.311Z,45.00
2018-07-19T16:58:59.864Z,45.50
2018-07-19T17:01:28.395Z,49.50
2018-07-19T17:03:56.909Z,47.50
2018-07-19T17:06:25.419Z,50.60
2018-07-19T17:08:53.970Z,46.70
2018-07-19T17:11:22.459Z,46.10
2018-07-19T17:13:51.004Z,46.00
2018-07-19T17:16:19.544Z,45.20
2018-07-19T17:18:48.275Z,46.00
2018-07-19T17:21:16.791Z,46.40
2018-07-19T17:23:45.398Z,46.20
2018-07-19T17:26:13.899Z,47.50
2018-07-19T17:28:42.417Z,48.80
2018-07-19T17:31:10.942Z,48.60
2018-07-19T17:33:39.462Z,47.80
2018-07-19T17:36:08.027Z,47.90
2018-07-19T17:38:36.763Z,49.60
2018-07-19T17:41:05.606Z,48.90
2018-07-19T17:43:34.093Z,49.20
2018-07-19T17:46:02.602Z,49.50
2018-07-19T17:48:31.112Z,50.80
2018-07-19T17:50:59.644Z,52.10
2018-07-19T17:53:28.499Z,52.10
2018-07-19T17:55:57.017Z,50.90
2018-07-19T17:58:26.509Z,51.00
2018-07-19T18:00:55.997Z,51.60
2018-07-19T18:03:24.503Z,52.50
2018-07-19T18:05:53.082Z,51.70
2018-07-19T18:08:21.572Z,52.40
2018-07-19T18:10:50.211Z,52.90
2018-07-19T18:13:18.942Z,53.10
2018-07-19T18:15:47.447Z,53.70
2018-07-19T18:18:15.947Z,54.70
2018-07-19T18:20:44.647Z,55.60
2018-07-19T18:23:13.122Z,58.40
2018-07-19T18:25:41.609Z,58.80
2018-07-19T18:28:10.191Z,60.20
2018-07-19T18:30:38.798Z,60.20
2018-07-19T18:33:07.434Z,60.30
2018-07-19T18:35:36.013Z,60.10
2018-07-19T18:38:04.520Z,60.50
2018-07-19T18:40:33.068Z,61.30
2018-07-19T18:43:01.566Z,60.90
2018-07-19T18:45:30.063Z,61.10
2018-07-19T18:47:59.673Z,61.50
2018-07-19T18:50:28.363Z,61.90
2018-07-19T18:52:56.895Z,61.80
2018-07-19T18:55:28.322Z,62.20
2018-07-19T18:57:56.851Z,66.10
2018-07-19T19:00:25.902Z,64.90
2018-07-19T19:02:54.434Z,65.00
2018-07-19T19:05:22.975Z,65.30
2018-07-19T19:07:51.511Z,65.10
2018-07-19T19:10:20.471Z,65.40
2018-07-19T19:12:49.152Z,66.50
2018-07-19T19:15:17.791Z,67.00
2018-07-19T19:17:46.332Z,65.80
2018-07-19T19:20:14.864Z,69.10
2018-07-19T19:22:43.406Z,68.40
2018-07-19T19:25:11.901Z,66.60
2018-07-19T19:27:40.400Z,69.20
2018-07-19T19:30:08.919Z,66.00
2018-07-19T19:35:05.930Z,66.20
2018-07-19T19:37:34.446Z,68.10
2018-07-19T19:40:03.402Z,68.00
2018-07-19T19:42:31.971Z,68.10
2018-07-19T19:45:00.805Z,70.70
2018-07-19T19:47:29.479Z,71.10
2018-07-19T19:49:58.000Z,69.00
2018-07-19T19:52:26.523Z,69.90
2018-07-19T19:54:55.348Z,72.60
2018-07-19T19:57:23.884Z,74.30
2018-07-19T19:59:52.434Z,71.90
2018-07-19T20:02:20.964Z,74.40
2018-07-19T20:04:52.442Z,71.00
2018-07-19T20:07:20.977Z,73.40
2018-07-19T20:09:51.903Z,74.30
2018-07-19T20:12:20.495Z,73.60
2018-07-19T20:14:49.311Z,75.50
2018-07-19T20:17:17.860Z,75.10
2018-07-19T20:19:46.437Z,75.80
2018-07-19T20:22:15.035Z,75.30
2018-07-19T20:24:43.703Z,76.60
2018-07-19T20:27:12.350Z,76.30
2018-07-19T20:29:41.030Z,78.00
2018-07-19T20:32:09.563Z,77.10
2018-07-19T20:34:38.108Z,78.60
2018-07-19T20:37:06.608Z,78.70
2018-07-19T20:39:35.138Z,78.30
2018-07-19T20:44:31.816Z,80.90
2018-07-19T20:47:00.788Z,80.90
2018-07-19T20:49:29.506Z,80.80
2018-07-19T20:51:58.370Z,80.70
2018-07-19T20:54:26.878Z,82.30
2018-07-19T20:56:55.446Z,82.40
2018-07-19T20:59:24.326Z,83.00
2018-07-19T21:01:52.839Z,83.40
2018-07-19T21:04:21.343Z,84.60
2018-07-19T21:06:49.865Z,85.60
2018-07-19T21:09:18.426Z,86.20
2018-07-19T21:11:46.931Z,86.30
2018-07-19T21:14:15.569Z,87.30
2018-07-19T21:16:44.402Z,88.00
2018-07-19T21:19:12.908Z,88.20
2018-07-19T21:24:09.655Z,87.00
2018-07-19T21:26:38.196Z,87.00
2018-07-19T21:29:06.701Z,88.90
2018-07-19T21:31:35.227Z,88.20
2018-07-19T21:34:03.803Z,89.00
2018-07-19T21:39:01.169Z,89.60
2018-07-19T21:41:30.061Z,90.90
2018-07-19T21:43:58.943Z,91.80
2018-07-19T21:46:27.875Z,91.00
2018-07-19T21:48:56.650Z,91.80
2018-07-19T21:51:25.190Z,91.00
2018-07-19T21:53:53.677Z,90.80
2018-07-19T21:56:22.272Z,91.10
2018-07-19T21:58:50.750Z,92.50
2018-07-19T22:01:19.267Z,92.40
2018-07-19T22:03:47.819Z,93.70
2018-07-19T22:06:16.371Z,94.60
2018-07-19T22:08:44.877Z,94.60
2018-07-19T22:11:13.384Z,93.80
2018-07-19T22:13:41.883Z,94.70
2018-07-19T22:16:10.399Z,96.50
2018-07-19T22:18:38.902Z,94.90
2018-07-19T22:21:07.400Z,94.60
2018-07-19T22:23:35.910Z,95.20
2018-07-19T22:26:04.465Z,95.40
2018-07-19T22:28:33.864Z,95.60
2018-07-19T22:31:02.354Z,95.60
2018-07-19T22:33:30.834Z,96.30
2018-07-19T22:35:59.422Z,95.70
2018-07-19T22:38:27.936Z,97.30
2018-07-19T22:40:56.429Z,96.50
2018-07-19T22:43:24.926Z,97.10
2018-07-19T22:45:53.491Z,97.30
2018-07-19T22:48:22.051Z,97.60
2018-07-19T22:50:50.615Z,97.90
2018-07-19T22:53:19.167Z,98.20
2018-07-19T22:55:47.675Z,98.90
2018-07-19T22:58:16.490Z,99.50
2018-07-19T23:00:44.990Z,99.50
2018-07-19T23:03:13.519Z,99.50
2018-07-19T23:05:42.095Z,99.90
2018-07-19T23:08:10.684Z,99.90
2018-07-19T23:10:39.189Z,99.90
2018-07-19T23:13:07.810Z,99.90
2018-07-19T23:15:36.299Z,99.90
2018-07-19T23:18:04.819Z,99.90
2018-07-19T23:20:33.315Z,99.90
2018-07-19T23:23:02.475Z,99.90
2018-07-19T23:25:30.947Z,99.90
2018-07-19T23:27:59.534Z,99.90
2018-07-19T23:30:30.640Z,99.90
2018-07-19T23:32:59.202Z,99.90
2018-07-19T23:35:35.519Z,99.90
2018-07-19T23:38:07.314Z,99.90
2018-07-19T23:40:38.292Z,99.90
2018-07-19T23:43:17.127Z,99.90
2018-07-19T23:48:22.490Z,99.90
2018-07-19T23:50:50.982Z,99.90
2018-07-19T23:53:19.475Z,99.90
2018-07-19T23:55:49.970Z,99.90
2018-07-19T23:58:18.447Z,99.90
